createdAt,value
2022-07-29T00:01:04.451Z,8.23
2022-07-29T00:03:31.596Z,2.53
2022-07-29T00:05:58.632Z,1.37
2022-07-29T00:08:27.717Z,7.73
2022-07-29T00:10:54.710Z,2.30
2022-07-29T00:13:32.640Z,1.93
2022-07-29T00:16:04.812Z,3.13
2022-07-29T00:18:32.947Z,3.13
2022-07-29T00:21:00.169Z,3.83
2022-07-29T00:23:27.071Z,2.10
2022-07-29T00:25:53.956Z,2.27
2022-07-29T00:28:21.076Z,3.63
2022-07-29T00:30:48.015Z,3.37
2022-07-29T00:33:14.930Z,5.27
2022-07-29T00:35:44.833Z,3.40
2022-07-29T00:38:21.115Z,2.10
2022-07-29T00:40:48.599Z,4.90
2022-07-29T00:43:15.912Z,2.73
2022-07-29T00:45:43.575Z,2.90
2022-07-29T00:48:10.692Z,3.20
2022-07-29T00:50:38.497Z,4.87
2022-07-29T00:53:07.310Z,2.37
2022-07-29T00:55:34.263Z,3.50
2022-07-29T00:58:01.566Z,1.50
2022-07-29T01:00:31.752Z,1.23
2022-07-29T01:02:59.258Z,3.10
2022-07-29T01:05:50.327Z,3.87
2022-07-29T01:08:15.741Z,1.40
2022-07-29T01:10:43.205Z,3.40
2022-07-29T01:13:10.653Z,2.47
2022-07-29T01:15:55.743Z,2.40
2022-07-29T01:18:43.687Z,3.77
2022-07-29T01:21:36.766Z,1.70
2022-07-29T01:24:17.639Z,2.57
2022-07-29T01:26:54.490Z,1.43
2022-07-29T01:29:40.352Z,4.33
2022-07-29T01:32:21.547Z,2.47
2022-07-29T01:35:08.004Z,1.00
2022-07-29T01:37:40.041Z,1.93
2022-07-29T01:40:15.803Z,1.90
2022-07-29T01:42:50.847Z,1.23
2022-07-29T01:45:28.226Z,2.10
2022-07-29T01:48:03.746Z,2.70
2022-07-29T01:50:42.067Z,2.90
2022-07-29T01:53:10.747Z,1.77
2022-07-29T01:55:40.579Z,1.37
2022-07-29T01:58:08.374Z,7.10
2022-07-29T02:00:35.894Z,2.70
2022-07-29T02:03:07.393Z,5.50
2022-07-29T02:05:34.851Z,4.03
2022-07-29T02:08:02.549Z,2.60
2022-07-29T02:10:33.176Z,2.07
2022-07-29T02:13:00.800Z,1.00
2022-07-29T02:15:30.054Z,4.67
2022-07-29T02:18:01.710Z,1.53
2022-07-29T02:20:30.016Z,1.50
2022-07-29T02:22:58.249Z,1.47
2022-07-29T02:25:25.651Z,1.13
2022-07-29T02:28:05.491Z,2.00
2022-07-29T02:30:33.229Z,2.20
2022-07-29T02:33:00.430Z,2.00
2022-07-29T02:35:27.437Z,1.03
2022-07-29T02:38:13.005Z,1.10
2022-07-29T02:40:41.158Z,1.77
2022-07-29T02:43:08.889Z,1.43
2022-07-29T02:45:35.807Z,2.67
2022-07-29T02:48:12.008Z,1.77
2022-07-29T02:50:42.845Z,2.50
2022-07-29T02:53:19.010Z,2.13
2022-07-29T02:55:51.340Z,2.70
2022-07-29T02:58:32.487Z,1.37
2022-07-29T03:01:04.619Z,4.30
2022-07-29T03:03:36.427Z,3.70
2022-07-29T03:06:04.018Z,2.50
2022-07-29T03:08:32.404Z,2.57
2022-07-29T03:10:59.912Z,6.20
2022-07-29T03:13:27.005Z,3.67
2022-07-29T03:15:55.391Z,2.93
2022-07-29T03:18:22.853Z,4.43
2022-07-29T03:20:49.920Z,3.37
2022-07-29T03:23:21.224Z,1.77
2022-07-29T03:25:48.115Z,1.90
2022-07-29T03:28:15.021Z,1.77
2022-07-29T03:30:44.501Z,2.10
2022-07-29T03:33:13.473Z,3.30
2022-07-29T03:35:40.787Z,1.47
2022-07-29T03:38:08.086Z,1.57
2022-07-29T03:40:52.920Z,3.17
2022-07-29T03:43:20.178Z,3.97
2022-07-29T03:45:52.390Z,3.90
2022-07-29T03:48:21.922Z,2.50
2022-07-29T03:50:49.312Z,1.37
2022-07-29T03:53:16.225Z,1.63
2022-07-29T03:55:47.463Z,2.50
2022-07-29T03:58:15.275Z,1.03
2022-07-29T04:00:43.384Z,4.93
2022-07-29T04:03:11.706Z,1.93
2022-07-29T04:05:38.962Z,1.30
2022-07-29T04:08:06.309Z,1.87
2022-07-29T04:10:33.986Z,3.77
2022-07-29T04:13:01.361Z,2.03
2022-07-29T04:15:31.113Z,2.13
2022-07-29T04:17:58.939Z,3.70
2022-07-29T04:20:25.870Z,2.97
2022-07-29T04:22:52.766Z,3.93
2022-07-29T04:25:19.627Z,2.20
2022-07-29T04:28:01.757Z,4.43
2022-07-29T04:30:29.095Z,3.30
2022-07-29T04:32:56.157Z,6.13
2022-07-29T04:35:23.325Z,2.70
2022-07-29T04:37:50.158Z,2.20
2022-07-29T04:40:17.118Z,4.77
2022-07-29T04:42:46.375Z,2.63
2022-07-29T04:45:14.357Z,1.03
2022-07-29T04:47:41.514Z,2.33
2022-07-29T04:50:09.739Z,2.03
2022-07-29T04:52:36.689Z,4.60
2022-07-29T04:55:05.143Z,2.50
2022-07-29T04:57:32.030Z,3.40
2022-07-29T04:59:58.975Z,5.67
2022-07-29T05:02:25.910Z,5.63
2022-07-29T05:04:52.794Z,3.33
2022-07-29T05:07:19.871Z,1.70
2022-07-29T05:09:46.747Z,3.57
2022-07-29T05:12:13.691Z,3.07
2022-07-29T05:14:40.582Z,2.70
2022-07-29T05:17:07.521Z,3.97
2022-07-29T05:19:34.476Z,3.43
2022-07-29T05:22:06.742Z,3.57
2022-07-29T05:24:33.659Z,4.03
2022-07-29T05:27:00.723Z,3.53
2022-07-29T05:29:42.629Z,3.57
2022-07-29T05:32:12.212Z,2.27
2022-07-29T05:34:50.169Z,3.47
2022-07-29T05:37:19.693Z,2.10
2022-07-29T05:39:48.918Z,2.97
2022-07-29T05:42:17.714Z,1.73
2022-07-29T05:44:44.708Z,1.53
2022-07-29T05:47:12.693Z,1.83
2022-07-29T05:49:39.696Z,1.17
2022-07-29T05:52:06.696Z,6.03
2022-07-29T05:54:33.605Z,3.70
2022-07-29T05:57:00.472Z,2.43
2022-07-29T05:59:30.452Z,2.70
2022-07-29T06:01:58.567Z,3.03
2022-07-29T06:04:26.227Z,1.00
2022-07-29T06:06:53.184Z,2.13
2022-07-29T06:09:20.334Z,1.63
2022-07-29T06:11:47.300Z,1.83
2022-07-29T06:14:14.664Z,4.57
2022-07-29T06:16:42.264Z,2.10
2022-07-29T06:19:10.478Z,1.20
2022-07-29T06:21:38.737Z,2.63
2022-07-29T06:24:09.566Z,4.33
2022-07-29T06:26:39.582Z,3.63
2022-07-29T06:29:07.813Z,1.70
2022-07-29T06:31:35.141Z,3.93
2022-07-29T06:34:02.134Z,5.17
2022-07-29T06:36:30.781Z,1.73
2022-07-29T06:38:57.860Z,3.07
2022-07-29T06:41:24.969Z,4.10
2022-07-29T06:43:54.573Z,5.37
2022-07-29T06:46:24.231Z,6.50
2022-07-29T06:48:53.007Z,3.23
2022-07-29T06:51:22.651Z,2.30
2022-07-29T06:53:58.391Z,1.70
2022-07-29T06:56:29.394Z,2.30
2022-07-29T06:58:56.482Z,1.70
2022-07-29T07:01:23.458Z,40.60
2022-07-29T07:03:50.538Z,4.53
2022-07-29T07:06:17.818Z,4.90
2022-07-29T07:08:44.897Z,3.50
2022-07-29T07:11:12.465Z,1.93
2022-07-29T07:13:39.735Z,4.93
2022-07-29T07:16:07.098Z,2.63
2022-07-29T07:18:34.370Z,2.27
2022-07-29T07:21:02.636Z,1.97
2022-07-29T07:23:30.196Z,1.80
2022-07-29T07:25:57.157Z,1.00
2022-07-29T07:28:24.889Z,1.83
2022-07-29T07:30:52.974Z,3.73
2022-07-29T07:33:20.233Z,2.37
2022-07-29T07:35:47.346Z,7.17
2022-07-29T07:38:14.611Z,2.10
2022-07-29T07:40:42.058Z,2.13
2022-07-29T07:43:09.165Z,3.47
2022-07-29T07:45:38.456Z,6.20
2022-07-29T07:48:06.184Z,5.40
2022-07-29T07:50:33.270Z,3.23
2022-07-29T07:53:00.710Z,5.40
2022-07-29T07:55:27.792Z,1.77
2022-07-29T07:57:55.831Z,1.83
2022-07-29T08:00:23.817Z,21.33
2022-07-29T08:02:51.446Z,10.43
2022-07-29T08:05:18.872Z,7.43
2022-07-29T08:07:47.607Z,8.37
2022-07-29T08:10:36.860Z,3.33
2022-07-29T08:13:05.534Z,12.67
2022-07-29T08:15:32.473Z,109.37
2022-07-29T08:17:59.365Z,24.23
2022-07-29T08:20:26.804Z,21.97
2022-07-29T08:22:54.668Z,21.10
2022-07-29T08:25:22.184Z,9.83
2022-07-29T08:27:49.222Z,31.60
2022-07-29T08:30:16.269Z,38.43
2022-07-29T08:32:53.847Z,17.33
2022-07-29T08:35:25.317Z,14.97
2022-07-29T08:37:53.118Z,10.83
2022-07-29T08:40:31.960Z,5.47
2022-07-29T08:42:59.961Z,15.23
2022-07-29T08:45:27.387Z,20.23
2022-07-29T08:47:54.679Z,4.77
2022-07-29T08:50:21.667Z,4.13
2022-07-29T08:52:49.911Z,6.50
2022-07-29T08:55:21.312Z,3.47
2022-07-29T08:57:52.016Z,2.40
2022-07-29T09:00:22.901Z,2.67
2022-07-29T09:02:52.892Z,1.20
2022-07-29T09:05:20.492Z,1.73
2022-07-29T09:07:49.432Z,21.00
2022-07-29T09:10:16.301Z,7.57
2022-07-29T09:12:52.918Z,5.67
2022-07-29T09:15:19.919Z,4.30
2022-07-29T09:17:49.682Z,5.47
2022-07-29T09:20:19.627Z,8.53
2022-07-29T09:22:54.686Z,20.43
2022-07-29T09:25:38.776Z,4.83
2022-07-29T09:28:09.856Z,5.13
2022-07-29T09:30:38.023Z,30.33
2022-07-29T09:33:05.029Z,14.57
2022-07-29T09:35:32.799Z,8.43
2022-07-29T09:38:11.782Z,2.00
2022-07-29T09:40:38.839Z,19.73
2022-07-29T09:43:13.397Z,10.20
2022-07-29T09:45:40.803Z,7.67
2022-07-29T09:48:19.368Z,5.33
2022-07-29T09:50:48.060Z,9.10
2022-07-29T09:53:31.672Z,8.77
2022-07-29T09:55:58.969Z,3.80
2022-07-29T09:58:26.076Z,3.60
2022-07-29T10:00:54.751Z,4.60
2022-07-29T10:03:22.486Z,3.47
2022-07-29T10:06:14.753Z,7.83
2022-07-29T10:08:42.871Z,4.90
2022-07-29T10:11:15.161Z,6.90
2022-07-29T10:13:45.472Z,6.47
2022-07-29T10:16:14.353Z,4.33
2022-07-29T10:18:45.157Z,4.30
2022-07-29T10:21:34.520Z,6.90
2022-07-29T10:24:03.048Z,5.90
2022-07-29T10:26:31.337Z,3.20
2022-07-29T10:29:01.173Z,1.70
2022-07-29T10:31:50.579Z,2.63
2022-07-29T10:34:27.544Z,4.00
2022-07-29T10:37:11.822Z,4.73
2022-07-29T10:39:49.657Z,2.87
2022-07-29T10:42:33.915Z,6.93
2022-07-29T10:45:02.314Z,3.43
2022-07-29T10:47:29.528Z,2.30
2022-07-29T10:50:07.320Z,1.80
2022-07-29T10:52:55.812Z,2.53
2022-07-29T10:55:43.680Z,3.37
2022-07-29T10:58:22.492Z,3.10
2022-07-29T11:00:54.345Z,4.13
2022-07-29T11:07:03.901Z,6.73
2022-07-29T11:09:37.473Z,3.33
2022-07-29T11:12:12.774Z,5.73
2022-07-29T11:15:01.807Z,5.87
2022-07-29T11:17:47.287Z,2.73
2022-07-29T11:20:45.742Z,3.93
2022-07-29T11:23:26.049Z,4.47
2022-07-29T11:26:18.903Z,8.67
2022-07-29T11:28:53.653Z,13.30
2022-07-29T11:31:37.184Z,5.20
2022-07-29T11:34:34.854Z,1.13
2022-07-29T11:37:10.898Z,6.43
2022-07-29T11:40:10.929Z,2.20
2022-07-29T11:42:41.926Z,1.80
2022-07-29T11:45:41.415Z,2.97
2022-07-29T11:48:27.879Z,1.40
2022-07-29T11:50:55.157Z,3.43
2022-07-29T11:53:25.119Z,4.93
2022-07-29T11:55:55.995Z,2.70
2022-07-29T11:58:25.169Z,2.60
2022-07-29T12:00:55.286Z,1.70
2022-07-29T12:03:35.479Z,3.70
2022-07-29T12:06:07.467Z,2.50
2022-07-29T12:08:42.032Z,1.53
2022-07-29T12:11:20.448Z,1.43
2022-07-29T12:13:49.306Z,3.23
2022-07-29T12:16:27.895Z,4.83
2022-07-29T12:18:58.265Z,2.20
2022-07-29T12:21:26.630Z,2.93
2022-07-29T12:23:59.425Z,2.23
2022-07-29T12:26:31.887Z,1.77
2022-07-29T12:29:02.307Z,2.97
2022-07-29T12:31:43.166Z,5.27
2022-07-29T12:34:13.777Z,2.70
2022-07-29T12:36:42.365Z,2.57
2022-07-29T12:39:10.553Z,3.97
2022-07-29T12:41:37.509Z,2.53
2022-07-29T12:44:05.826Z,1.87
2022-07-29T12:46:32.832Z,2.63
2022-07-29T12:48:59.878Z,4.80
2022-07-29T12:51:34.613Z,3.13
2022-07-29T12:54:16.935Z,2.53
2022-07-29T12:56:46.168Z,4.87
2022-07-29T12:59:22.283Z,4.77
2022-07-29T13:01:51.489Z,4.83
2022-07-29T13:04:29.606Z,1.73
2022-07-29T13:07:13.122Z,3.20
2022-07-29T13:09:49.647Z,2.17
2022-07-29T13:12:16.617Z,3.40
2022-07-29T13:14:45.521Z,2.03
2022-07-29T13:17:17.240Z,6.37
2022-07-29T13:19:54.673Z,6.17
2022-07-29T13:22:23.994Z,7.00
2022-07-29T13:24:58.146Z,13.57
2022-07-29T13:27:30.667Z,4.87
2022-07-29T13:29:59.920Z,4.27
2022-07-29T13:32:29.004Z,5.97
2022-07-29T13:35:05.438Z,6.47
2022-07-29T13:37:35.339Z,6.10
2022-07-29T13:40:04.385Z,4.97
2022-07-29T13:42:32.922Z,12.30
2022-07-29T13:45:00.599Z,4.20
2022-07-29T13:47:32.592Z,4.97
2022-07-29T13:50:01.512Z,3.63
2022-07-29T13:52:28.513Z,4.63
2022-07-29T13:54:55.444Z,4.13
2022-07-29T13:57:22.353Z,1.37
2022-07-29T13:59:53.576Z,2.40
2022-07-29T14:02:21.706Z,50.73
2022-07-29T14:04:56.091Z,37.43
2022-07-29T14:07:23.989Z,20.87
2022-07-29T14:09:51.729Z,54.73
2022-07-29T14:12:18.872Z,157.90
2022-07-29T14:14:47.257Z,113.17
2022-07-29T14:17:14.716Z,93.77
2022-07-29T14:19:41.750Z,138.30
2022-07-29T14:22:09.748Z,24.63
2022-07-29T14:24:38.191Z,18.13
2022-07-29T14:27:06.727Z,14.73
2022-07-29T14:29:37.414Z,36.20
2022-07-29T14:32:10.184Z,18.87
2022-07-29T14:34:37.815Z,21.87
2022-07-29T14:37:06.933Z,44.70
2022-07-29T14:39:36.940Z,27.37
2022-07-29T14:42:06.854Z,32.50
2022-07-29T14:44:33.730Z,28.77
2022-07-29T14:47:01.555Z,56.73
2022-07-29T14:49:35.265Z,23.13
2022-07-29T14:52:02.281Z,28.07
2022-07-29T14:54:29.441Z,13.30
2022-07-29T14:56:58.669Z,7.03
2022-07-29T14:59:26.722Z,4.67
2022-07-29T15:01:53.947Z,8.00
2022-07-29T15:04:21.309Z,2.57
2022-07-29T15:06:48.310Z,5.73
2022-07-29T15:09:15.384Z,4.37
2022-07-29T15:11:42.366Z,4.73
2022-07-29T15:14:09.477Z,9.40
2022-07-29T15:16:38.110Z,3.37
2022-07-29T15:19:05.773Z,3.03
2022-07-29T15:21:33.100Z,7.90
2022-07-29T15:24:00.067Z,25.73
2022-07-29T15:26:27.504Z,32.90
2022-07-29T15:28:54.425Z,17.73
2022-07-29T15:31:21.398Z,22.83
2022-07-29T15:33:48.845Z,22.03
2022-07-29T15:36:42.238Z,10.80
2022-07-29T15:39:03.501Z,9.03
2022-07-29T15:41:30.529Z,3.70
2022-07-29T15:43:57.802Z,7.73
2022-07-29T15:46:43.244Z,6.90
2022-07-29T15:49:10.306Z,2.23
2022-07-29T15:51:37.353Z,2.67
2022-07-29T15:54:04.868Z,2.40
2022-07-29T15:56:32.175Z,1.20
2022-07-29T15:58:59.397Z,3.53
2022-07-29T16:01:28.358Z,2.57
2022-07-29T16:03:55.429Z,4.07
2022-07-29T16:06:22.519Z,2.37
2022-07-29T16:08:49.417Z,2.70
2022-07-29T16:11:16.319Z,2.33
2022-07-29T16:13:43.189Z,3.47
2022-07-29T16:16:10.738Z,2.07
2022-07-29T16:18:37.646Z,8.37
2022-07-29T16:21:04.676Z,1.50
2022-07-29T16:23:32.408Z,3.80
2022-07-29T16:26:00.892Z,5.57
2022-07-29T16:28:29.298Z,3.47
2022-07-29T16:30:56.297Z,2.03
2022-07-29T16:33:23.809Z,4.50
2022-07-29T16:35:51.461Z,1.67
2022-07-29T16:38:18.369Z,2.60
2022-07-29T16:40:45.416Z,3.23
2022-07-29T16:43:12.288Z,2.93
2022-07-29T16:45:46.358Z,4.40
2022-07-29T16:48:15.177Z,9.70
2022-07-29T16:50:48.606Z,7.83
2022-07-29T16:53:20.004Z,4.43
2022-07-29T16:55:47.169Z,18.00
2022-07-29T16:58:14.286Z,18.63
2022-07-29T17:00:41.301Z,107.33
2022-07-29T17:03:08.262Z,50.07
2022-07-29T17:05:50.736Z,38.67
2022-07-29T17:08:21.159Z,17.53
2022-07-29T17:10:48.270Z,21.53
2022-07-29T17:13:15.115Z,623.00
2022-07-29T17:15:44.929Z,716.90
2022-07-29T17:18:12.704Z,424.10
2022-07-29T17:20:41.676Z,274.57
2022-07-29T17:23:08.606Z,747.33
2022-07-29T17:25:35.556Z,361.43
2022-07-29T17:28:02.457Z,120.40
2022-07-29T17:30:30.122Z,72.20
2022-07-29T17:32:57.272Z,39.67
2022-07-29T17:35:42.648Z,31.23
2022-07-29T17:38:09.565Z,19.93
2022-07-29T17:40:36.706Z,9.90
2022-07-29T17:43:04.910Z,12.37
2022-07-29T17:45:48.759Z,6.30
2022-07-29T17:48:17.508Z,7.30
2022-07-29T17:50:44.385Z,7.73
2022-07-29T17:53:16.218Z,5.73
2022-07-29T17:55:45.855Z,2.17
2022-07-29T17:58:12.806Z,2.40
2022-07-29T18:00:40.168Z,3.60
2022-07-29T18:03:07.705Z,1.57
2022-07-29T18:05:35.270Z,2.97
2022-07-29T18:08:02.563Z,2.80
2022-07-29T18:10:30.644Z,2.77
2022-07-29T18:12:57.608Z,2.27
2022-07-29T18:15:24.449Z,2.20
2022-07-29T18:17:56.920Z,3.60
2022-07-29T18:20:26.049Z,4.90
2022-07-29T18:22:53.181Z,2.63
2022-07-29T18:25:20.254Z,3.27
2022-07-29T18:27:47.175Z,3.40
2022-07-29T18:30:15.348Z,2.17
2022-07-29T18:32:54.355Z,4.43
2022-07-29T18:35:26.884Z,2.60
2022-07-29T18:38:00.894Z,2.60
2022-07-29T18:40:29.914Z,3.90
2022-07-29T18:42:57.056Z,4.80
2022-07-29T18:45:28.417Z,10.07
2022-07-29T18:47:56.648Z,3.03
2022-07-29T18:50:28.919Z,3.63
2022-07-29T18:52:58.930Z,2.30
2022-07-29T18:55:26.282Z,1.60
2022-07-29T18:57:56.139Z,4.87
2022-07-29T19:00:24.902Z,5.60
2022-07-29T19:02:52.895Z,2.47
2022-07-29T19:05:20.039Z,11.17
2022-07-29T19:07:46.949Z,9.97
2022-07-29T19:10:13.913Z,8.87
2022-07-29T19:12:40.821Z,5.17
2022-07-29T19:15:08.386Z,5.60
2022-07-29T19:17:35.290Z,3.50
2022-07-29T19:20:02.504Z,4.20
2022-07-29T19:22:29.497Z,4.57
2022-07-29T19:24:56.370Z,3.70
2022-07-29T19:27:23.266Z,1.83
2022-07-29T19:29:50.153Z,2.83
2022-07-29T19:32:24.822Z,2.37
2022-07-29T19:35:11.096Z,4.30
2022-07-29T19:37:37.963Z,2.63
2022-07-29T19:40:06.431Z,3.20
2022-07-29T19:42:33.631Z,3.13
2022-07-29T19:45:00.494Z,4.20
2022-07-29T19:47:27.383Z,3.13
2022-07-29T19:49:54.245Z,3.73
2022-07-29T19:52:21.182Z,6.30
2022-07-29T19:54:48.321Z,4.03
2022-07-29T19:57:15.177Z,8.07
2022-07-29T19:59:42.085Z,6.90
2022-07-29T20:02:12.437Z,6.10
2022-07-29T20:04:39.728Z,4.37
2022-07-29T20:07:06.856Z,3.50
2022-07-29T20:09:33.796Z,10.90
2022-07-29T20:12:00.862Z,4.90
2022-07-29T20:14:27.865Z,2.23
2022-07-29T20:16:54.767Z,3.20
2022-07-29T20:19:21.984Z,2.07
2022-07-29T20:21:48.863Z,4.00
2022-07-29T20:24:15.861Z,3.87
2022-07-29T20:26:42.865Z,7.07
2022-07-29T20:29:09.701Z,4.70
2022-07-29T20:31:36.800Z,4.10
2022-07-29T20:34:04.135Z,5.43
2022-07-29T20:36:31.095Z,4.30
2022-07-29T20:39:00.107Z,3.83
2022-07-29T20:41:27.181Z,1.73
2022-07-29T20:43:54.071Z,3.97
2022-07-29T20:46:21.475Z,4.10
2022-07-29T20:48:48.455Z,4.23
2022-07-29T20:51:15.509Z,3.73
2022-07-29T20:53:42.343Z,6.03
2022-07-29T20:56:09.238Z,3.60
2022-07-29T20:58:36.666Z,3.83
2022-07-29T21:01:04.308Z,2.53
2022-07-29T21:03:31.475Z,3.33
2022-07-29T21:05:59.221Z,3.97
2022-07-29T21:08:26.573Z,3.80
2022-07-29T21:10:54.172Z,4.50
2022-07-29T21:13:22.582Z,6.53
2022-07-29T21:15:51.788Z,4.00
2022-07-29T21:18:32.604Z,3.47
2022-07-29T21:21:00.660Z,3.03
2022-07-29T21:23:28.239Z,5.20
2022-07-29T21:25:55.557Z,2.73
2022-07-29T21:28:36.901Z,6.93
2022-07-29T21:31:07.070Z,3.70
2022-07-29T21:33:34.042Z,4.83
2022-07-29T21:38:49.311Z,2.90
2022-07-29T21:41:16.199Z,3.57
2022-07-29T21:43:43.127Z,3.73
2022-07-29T21:46:10.071Z,6.07
2022-07-29T21:48:40.074Z,2.47
2022-07-29T21:51:09.318Z,7.17
2022-07-29T21:53:36.269Z,3.73
2022-07-29T21:56:03.198Z,2.33
2022-07-29T21:58:31.241Z,3.10
2022-07-29T22:00:58.191Z,4.97
2022-07-29T22:03:25.090Z,4.20
2022-07-29T22:05:52.101Z,5.87
2022-07-29T22:08:20.110Z,5.20
2022-07-29T22:10:46.949Z,4.67
2022-07-29T22:13:13.854Z,3.27
2022-07-29T22:15:45.346Z,3.80
2022-07-29T22:18:13.879Z,4.93
2022-07-29T22:20:49.761Z,3.30
2022-07-29T22:23:16.776Z,2.53
2022-07-29T22:25:43.711Z,3.00
2022-07-29T22:28:10.615Z,7.83
2022-07-29T22:30:37.644Z,5.40
2022-07-29T22:33:04.851Z,3.97
2022-07-29T22:35:31.745Z,7.97
2022-07-29T22:37:58.769Z,4.20
2022-07-29T22:40:30.544Z,4.37
2022-07-29T22:42:57.918Z,5.00
2022-07-29T22:45:24.745Z,3.33
2022-07-29T22:47:57.452Z,6.73
2022-07-29T22:50:26.595Z,8.57
2022-07-29T22:52:53.505Z,8.30
2022-07-29T22:55:20.512Z,7.10
2022-07-29T22:57:47.447Z,4.87
2022-07-29T23:00:15.001Z,4.93
2022-07-29T23:03:02.144Z,4.97
2022-07-29T23:05:29.086Z,4.27
2022-07-29T23:07:56.173Z,3.90
2022-07-29T23:10:23.090Z,4.17
2022-07-29T23:12:49.969Z,2.70
2022-07-29T23:15:16.815Z,4.47
2022-07-29T23:17:45.100Z,3.10
2022-07-29T23:20:12.232Z,5.13
2022-07-29T23:22:42.060Z,1.70
2022-07-29T23:25:09.416Z,2.10
2022-07-29T23:27:36.354Z,4.03
2022-07-29T23:30:04.969Z,5.70
2022-07-29T23:32:31.832Z,2.57
2022-07-29T23:34:58.690Z,3.97
2022-07-29T23:37:26.901Z,2.80
2022-07-29T23:39:54.131Z,1.73
2022-07-29T23:42:21.007Z,4.10
2022-07-29T23:44:47.866Z,2.20
2022-07-29T23:47:14.765Z,3.40
2022-07-29T23:49:41.606Z,5.10
2022-07-29T23:52:08.536Z,3.43
2022-07-29T23:54:35.427Z,3.70
2022-07-29T23:57:02.720Z,2.70
2022-07-29T23:59:29.853Z,4.97
